sensor_id;sensor_type;location;lat;lon;timestamp;pressure;altitude;pressure_sealevel;temperature;humidity
64711;BME280;51139;45.626;6.850;2023-04-21T00:00:44;81326.16;;;1.79;100.00
64711;BME280;51139;45.626;6.850;2023-04-21T00:03:09;81320.72;;;1.69;100.00
64711;BME280;51139;45.626;6.850;2023-04-21T00:05:35;81322.91;;;1.57;100.00
64711;BME280;51139;45.626;6.850;2023-04-21T00:08:00;81318.22;;;1.56;100.00
64711;BME280;51139;45.626;6.850;2023-04-21T00:10:25;81312.56;;;1.81;100.00
64711;BME280;51139;45.626;6.850;2023-04-21T00:12:51;81309.16;;;2.09;100.00
64711;BME280;51139;45.626;6.850;2023-04-21T00:15:16;81303.22;;;2.01;100.00
64711;BME280;51139;45.626;6.850;2023-04-21T00:17:42;81306.94;;;1.69;100.00
64711;BME280;51139;45.626;6.850;2023-04-21T00:20:07;81300.66;;;1.64;100.00
64711;BME280;51139;45.626;6.850;2023-04-21T00:22:34;81302.38;;;1.62;100.00
64711;BME280;51139;45.626;6.850;2023-04-21T00:25:00;81294.78;;;1.71;100.00
64711;BME280;51139;45.626;6.850;2023-04-21T00:27:26;81296.47;;;2.29;99.49
64711;BME280;51139;45.626;6.850;2023-04-21T00:29:51;81293.59;;;1.88;100.00
64711;BME280;51139;45.626;6.850;2023-04-21T00:32:16;81294.84;;;1.95;100.00
64711;BME280;51139;45.626;6.850;2023-04-21T00:34:42;81287.78;;;2.26;100.00
64711;BME280;51139;45.626;6.850;2023-04-21T00:37:07;81298.84;;;1.43;100.00
64711;BME280;51139;45.626;6.850;2023-04-21T00:39:33;81280.47;;;1.65;100.00
64711;BME280;51139;45.626;6.850;2023-04-21T00:41:58;81279.06;;;1.64;100.00
64711;BME280;51139;45.626;6.850;2023-04-21T00:44:23;81273.44;;;1.36;100.00
64711;BME280;51139;45.626;6.850;2023-04-21T00:46:49;81269.25;;;1.93;100.00
64711;BME280;51139;45.626;6.850;2023-04-21T00:49:14;81257.59;;;2.02;100.00
64711;BME280;51139;45.626;6.850;2023-04-21T00:51:40;81249.94;;;2.12;97.30
64711;BME280;51139;45.626;6.850;2023-04-21T00:54:06;81251.97;;;1.74;100.00
64711;BME280;51139;45.626;6.850;2023-04-21T00:56:34;81251.34;;;1.00;100.00
64711;BME280;51139;45.626;6.850;2023-04-21T00:59:01;81246.94;;;1.24;100.00
64711;BME280;51139;45.626;6.850;2023-04-21T01:01:30;81252.78;;;1.62;100.00
64711;BME280;51139;45.626;6.850;2023-04-21T01:03:57;81250.28;;;2.00;98.38
64711;BME280;51139;45.626;6.850;2023-04-21T01:06:24;81252.91;;;2.24;97.24
64711;BME280;51139;45.626;6.850;2023-04-21T01:08:51;81246.84;;;1.53;100.00
64711;BME280;51139;45.626;6.850;2023-04-21T01:11:17;81235.13;;;2.07;100.00
64711;BME280;51139;45.626;6.850;2023-04-21T01:13:42;81238.81;;;2.58;98.81
64711;BME280;51139;45.626;6.850;2023-04-21T01:16:08;81240.72;;;2.18;97.27
64711;BME280;51139;45.626;6.850;2023-04-21T01:18:34;81240.69;;;2.11;99.16
64711;BME280;51139;45.626;6.850;2023-04-21T01:21:00;81236.22;;;1.43;100.00
64711;BME280;51139;45.626;6.850;2023-04-21T01:23:26;81240.41;;;1.02;100.00
64711;BME280;51139;45.626;6.850;2023-04-21T01:25:52;81232.13;;;1.27;100.00
64711;BME280;51139;45.626;6.850;2023-04-21T01:28:21;81229.16;;;1.23;100.00
64711;BME280;51139;45.626;6.850;2023-04-21T01:30:47;81239.69;;;1.38;100.00
64711;BME280;51139;45.626;6.850;2023-04-21T01:33:13;81243.81;;;1.78;100.00
64711;BME280;51139;45.626;6.850;2023-04-21T01:35:38;81238.41;;;1.84;100.00
64711;BME280;51139;45.626;6.850;2023-04-21T01:38:05;81238.38;;;1.68;100.00
64711;BME280;51139;45.626;6.850;2023-04-21T01:40:30;81237.34;;;1.79;100.00
64711;BME280;51139;45.626;6.850;2023-04-21T01:42:56;81235.50;;;1.43;100.00
64711;BME280;51139;45.626;6.850;2023-04-21T01:45:21;81237.34;;;1.27;100.00
64711;BME280;51139;45.626;6.850;2023-04-21T01:47:47;81238.56;;;1.70;100.00
64711;BME280;51139;45.626;6.850;2023-04-21T01:50:12;81240.63;;;1.72;100.00
64711;BME280;51139;45.626;6.850;2023-04-21T01:52:38;81241.84;;;1.71;100.00
64711;BME280;51139;45.626;6.850;2023-04-21T01:55:03;81245.75;;;2.09;100.00
64711;BME280;51139;45.626;6.850;2023-04-21T01:57:29;81248.69;;;1.89;100.00
64711;BME280;51139;45.626;6.850;2023-04-21T01:59:54;81244.69;;;1.88;100.00
64711;BME280;51139;45.626;6.850;2023-04-21T02:02:19;81242.97;;;2.07;100.00
64711;BME280;51139;45.626;6.850;2023-04-21T02:04:45;81248.41;;;2.24;100.00
64711;BME280;51139;45.626;6.850;2023-04-21T02:07:10;81241.91;;;2.02;100.00
64711;BME280;51139;45.626;6.850;2023-04-21T02:09:36;81245.38;;;1.81;99.97
64711;BME280;51139;45.626;6.850;2023-04-21T02:12:01;81245.16;;;1.71;100.00
64711;BME280;51139;45.626;6.850;2023-04-21T02:14:27;81237.72;;;1.91;100.00
64711;BME280;51139;45.626;6.850;2023-04-21T02:16:53;81248.06;;;2.36;100.00
64711;BME280;51139;45.626;6.850;2023-04-21T02:19:20;81242.97;;;2.61;97.09
64711;BME280;51139;45.626;6.850;2023-04-21T02:21:45;81237.06;;;2.84;92.33
64711;BME280;51139;45.626;6.850;2023-04-21T02:24:10;81232.69;;;2.79;90.03
64711;BME280;51139;45.626;6.850;2023-04-21T02:26:36;81244.34;;;3.01;91.32
64711;BME280;51139;45.626;6.850;2023-04-21T02:29:01;81238.94;;;3.06;88.89
64711;BME280;51139;45.626;6.850;2023-04-21T02:31:27;81251.78;;;3.35;87.94
64711;BME280;51139;45.626;6.850;2023-04-21T02:33:52;81245.09;;;3.50;87.25
64711;BME280;51139;45.626;6.850;2023-04-21T02:36:18;81246.06;;;3.21;90.20
64711;BME280;51139;45.626;6.850;2023-04-21T02:38:44;81244.69;;;3.05;93.40
64711;BME280;51139;45.626;6.850;2023-04-21T02:41:09;81254.78;;;3.16;92.87
64711;BME280;51139;45.626;6.850;2023-04-21T02:43:35;81253.94;;;2.90;93.00
64711;BME280;51139;45.626;6.850;2023-04-21T02:46:07;81255.50;;;2.94;95.57
64711;BME280;51139;45.626;6.850;2023-04-21T02:48:34;81259.19;;;2.98;87.42
64711;BME280;51139;45.626;6.850;2023-04-21T02:50:59;81274.00;;;3.11;89.48
64711;BME280;51139;45.626;6.850;2023-04-21T02:53:25;81271.59;;;2.67;92.75
64711;BME280;51139;45.626;6.850;2023-04-21T02:55:50;81272.59;;;2.95;91.46
64711;BME280;51139;45.626;6.850;2023-04-21T02:58:16;81272.59;;;3.10;88.85
64711;BME280;51139;45.626;6.850;2023-04-21T03:00:41;81277.47;;;3.06;91.50
64711;BME280;51139;45.626;6.850;2023-04-21T03:03:07;81279.91;;;3.19;87.29
64711;BME280;51139;45.626;6.850;2023-04-21T03:05:32;81285.53;;;2.69;92.05
64711;BME280;51139;45.626;6.850;2023-04-21T03:07:57;81279.06;;;2.31;97.98
64711;BME280;51139;45.626;6.850;2023-04-21T03:10:23;81286.16;;;2.08;100.00
64711;BME280;51139;45.626;6.850;2023-04-21T03:12:48;81285.63;;;1.94;100.00
64711;BME280;51139;45.626;6.850;2023-04-21T03:15:14;81285.25;;;1.89;100.00
64711;BME280;51139;45.626;6.850;2023-04-21T03:17:40;81284.34;;;1.71;100.00
64711;BME280;51139;45.626;6.850;2023-04-21T03:20:06;81298.28;;;1.82;100.00
64711;BME280;51139;45.626;6.850;2023-04-21T03:22:34;81298.19;;;2.03;100.00
64711;BME280;51139;45.626;6.850;2023-04-21T03:24:59;81294.31;;;1.88;100.00
64711;BME280;51139;45.626;6.850;2023-04-21T03:27:25;81301.38;;;2.56;100.00
64711;BME280;51139;45.626;6.850;2023-04-21T03:29:50;81303.44;;;2.18;100.00
64711;BME280;51139;45.626;6.850;2023-04-21T03:32:16;81308.34;;;1.70;100.00
64711;BME280;51139;45.626;6.850;2023-04-21T03:34:41;81318.09;;;2.29;100.00
64711;BME280;51139;45.626;6.850;2023-04-21T03:37:06;81311.84;;;2.56;100.00
64711;BME280;51139;45.626;6.850;2023-04-21T03:39:32;81320.75;;;2.91;100.00
64711;BME280;51139;45.626;6.850;2023-04-21T03:41:57;81314.47;;;3.02;100.00
64711;BME280;51139;45.626;6.850;2023-04-21T03:44:24;81310.28;;;3.23;100.00
64711;BME280;51139;45.626;6.850;2023-04-21T03:46:52;81309.03;;;2.54;100.00
64711;BME280;51139;45.626;6.850;2023-04-21T03:49:18;81303.16;;;1.78;100.00
64711;BME280;51139;45.626;6.850;2023-04-21T03:51:43;81299.91;;;2.00;100.00
64711;BME280;51139;45.626;6.850;2023-04-21T03:54:08;81308.81;;;1.60;100.00
64711;BME280;51139;45.626;6.850;2023-04-21T03:56:34;81293.78;;;1.82;100.00
64711;BME280;51139;45.626;6.850;2023-04-21T03:58:59;81305.38;;;1.29;100.00
64711;BME280;51139;45.626;6.850;2023-04-21T04:01:26;81303.31;;;1.27;100.00
64711;BME280;51139;45.626;6.850;2023-04-21T04:03:51;81283.00;;;1.41;100.00
64711;BME280;51139;45.626;6.850;2023-04-21T04:06:16;81294.94;;;1.29;100.00
64711;BME280;51139;45.626;6.850;2023-04-21T04:08:42;81291.31;;;1.32;100.00
64711;BME280;51139;45.626;6.850;2023-04-21T04:11:07;81289.53;;;1.27;100.00
64711;BME280;51139;45.626;6.850;2023-04-21T04:13:32;81296.78;;;1.50;100.00
64711;BME280;51139;45.626;6.850;2023-04-21T04:15:58;81298.69;;;2.01;100.00
64711;BME280;51139;45.626;6.850;2023-04-21T04:18:23;81296.13;;;1.57;100.00
64711;BME280;51139;45.626;6.850;2023-04-21T04:20:49;81296.06;;;1.41;100.00
64711;BME280;51139;45.626;6.850;2023-04-21T04:23:15;81294.81;;;1.79;100.00
64711;BME280;51139;45.626;6.850;2023-04-21T04:25:40;81292.31;;;2.49;100.00
64711;BME280;51139;45.626;6.850;2023-04-21T04:28:06;81291.81;;;2.43;100.00
64711;BME280;51139;45.626;6.850;2023-04-21T04:30:33;81296.84;;;2.64;100.00
64711;BME280;51139;45.626;6.850;2023-04-21T04:32:59;81301.22;;;2.77;100.00
64711;BME280;51139;45.626;6.850;2023-04-21T04:35:25;81293.19;;;2.28;100.00
64711;BME280;51139;45.626;6.850;2023-04-21T04:37:50;81294.38;;;1.59;100.00
64711;BME280;51139;45.626;6.850;2023-04-21T04:40:16;81287.88;;;1.45;100.00
64711;BME280;51139;45.626;6.850;2023-04-21T04:42:42;81281.69;;;1.56;100.00
64711;BME280;51139;45.626;6.850;2023-04-21T04:45:09;81275.72;;;2.08;100.00
64711;BME280;51139;45.626;6.850;2023-04-21T04:47:35;81274.13;;;2.04;100.00
64711;BME280;51139;45.626;6.850;2023-04-21T04:50:01;81278.81;;;1.38;100.00
64711;BME280;51139;45.626;6.850;2023-04-21T04:52:27;81281.16;;;1.21;100.00
64711;BME280;51139;45.626;6.850;2023-04-21T04:54:52;81286.00;;;1.53;100.00
64711;BME280;51139;45.626;6.850;2023-04-21T04:57:18;81286.19;;;2.15;100.00
64711;BME280;51139;45.626;6.850;2023-04-21T04:59:43;81284.38;;;1.35;100.00
64711;BME280;51139;45.626;6.850;2023-04-21T05:02:09;81282.59;;;0.93;100.00
64711;BME280;51139;45.626;6.850;2023-04-21T05:04:34;81292.19;;;0.98;100.00
64711;BME280;51139;45.626;6.850;2023-04-21T05:07:00;81293.97;;;0.74;100.00
64711;BME280;51139;45.626;6.850;2023-04-21T05:09:25;81288.47;;;0.85;100.00
64711;BME280;51139;45.626;6.850;2023-04-21T05:11:50;81297.28;;;1.11;100.00
64711;BME280;51139;45.626;6.850;2023-04-21T05:14:16;81303.59;;;1.16;100.00
64711;BME280;51139;45.626;6.850;2023-04-21T05:16:44;81298.97;;;1.01;100.00
64711;BME280;51139;45.626;6.850;2023-04-21T05:19:10;81299.72;;;1.09;100.00
64711;BME280;51139;45.626;6.850;2023-04-21T05:21:35;81299.91;;;1.11;100.00
64711;BME280;51139;45.626;6.850;2023-04-21T05:24:01;81300.25;;;1.44;100.00
64711;BME280;51139;45.626;6.850;2023-04-21T05:26:27;81299.91;;;1.48;100.00
64711;BME280;51139;45.626;6.850;2023-04-21T05:28:54;81300.56;;;1.85;100.00
64711;BME280;51139;45.626;6.850;2023-04-21T05:31:20;81294.16;;;2.10;100.00
64711;BME280;51139;45.626;6.850;2023-04-21T05:33:46;81291.28;;;1.69;100.00
64711;BME280;51139;45.626;6.850;2023-04-21T05:36:11;81284.72;;;1.91;100.00
64711;BME280;51139;45.626;6.850;2023-04-21T05:38:37;81283.69;;;1.86;100.00
64711;BME280;51139;45.626;6.850;2023-04-21T05:41:03;81283.72;;;2.02;100.00
64711;BME280;51139;45.626;6.850;2023-04-21T05:43:29;81286.84;;;2.00;100.00
64711;BME280;51139;45.626;6.850;2023-04-21T05:45:58;81290.88;;;2.17;100.00
64711;BME280;51139;45.626;6.850;2023-04-21T05:48:23;81287.44;;;2.38;100.00
64711;BME280;51139;45.626;6.850;2023-04-21T05:50:48;81284.28;;;2.31;100.00
64711;BME280;51139;45.626;6.850;2023-04-21T05:53:14;81290.22;;;2.40;100.00
64711;BME280;51139;45.626;6.850;2023-04-21T05:55:39;81296.66;;;3.01;100.00
64711;BME280;51139;45.626;6.850;2023-04-21T05:58:04;81294.41;;;3.20;100.00
64711;BME280;51139;45.626;6.850;2023-04-21T06:00:30;81299.75;;;3.46;100.00
64711;BME280;51139;45.626;6.850;2023-04-21T06:02:55;81303.88;;;3.72;96.75
64711;BME280;51139;45.626;6.850;2023-04-21T06:05:21;81304.53;;;3.88;96.02
64711;BME280;51139;45.626;6.850;2023-04-21T06:07:46;81294.22;;;3.83;97.13
64711;BME280;51139;45.626;6.850;2023-04-21T06:10:12;81290.38;;;3.84;94.52
64711;BME280;51139;45.626;6.850;2023-04-21T06:12:38;81281.50;;;3.79;93.62
64711;BME280;51139;45.626;6.850;2023-04-21T06:15:03;81289.25;;;3.54;93.30
64711;BME280;51139;45.626;6.850;2023-04-21T06:17:29;81289.88;;;2.90;100.00
64711;BME280;51139;45.626;6.850;2023-04-21T06:19:55;81298.25;;;2.57;100.00
64711;BME280;51139;45.626;6.850;2023-04-21T06:22:24;81310.63;;;3.19;100.00
64711;BME280;51139;45.626;6.850;2023-04-21T06:24:51;81310.03;;;3.52;100.00
64711;BME280;51139;45.626;6.850;2023-04-21T06:27:16;81318.44;;;3.34;93.81
64711;BME280;51139;45.626;6.850;2023-04-21T06:29:42;81312.72;;;2.74;97.66
64711;BME280;51139;45.626;6.850;2023-04-21T06:32:09;81302.59;;;2.47;100.00
64711;BME280;51139;45.626;6.850;2023-04-21T06:34:34;81299.63;;;2.27;100.00
64711;BME280;51139;45.626;6.850;2023-04-21T06:36:59;81299.25;;;2.31;100.00
64711;BME280;51139;45.626;6.850;2023-04-21T06:39:25;81295.63;;;2.34;100.00
64711;BME280;51139;45.626;6.850;2023-04-21T06:41:51;81295.97;;;2.46;100.00
64711;BME280;51139;45.626;6.850;2023-04-21T06:44:17;81285.34;;;2.75;100.00
64711;BME280;51139;45.626;6.850;2023-04-21T06:46:42;81284.31;;;2.78;97.63
64711;BME280;51139;45.626;6.850;2023-04-21T06:49:08;81272.41;;;3.16;93.65
64711;BME280;51139;45.626;6.850;2023-04-21T06:51:33;81277.88;;;3.67;89.01
64711;BME280;51139;45.626;6.850;2023-04-21T06:53:59;81279.91;;;4.24;82.85
64711;BME280;51139;45.626;6.850;2023-04-21T06:56:29;81287.94;;;4.27;81.21
64711;BME280;51139;45.626;6.850;2023-04-21T06:58:55;81297.41;;;4.22;87.34
64711;BME280;51139;45.626;6.850;2023-04-21T07:01:21;81295.84;;;4.19;85.79
64711;BME280;51139;45.626;6.850;2023-04-21T07:03:48;81308.25;;;3.70;90.66
64711;BME280;51139;45.626;6.850;2023-04-21T07:06:14;81318.41;;;3.58;91.52
64711;BME280;51139;45.626;6.850;2023-04-21T07:08:39;81330.00;;;3.88;89.54
64711;BME280;51139;45.626;6.850;2023-04-21T07:11:05;81323.72;;;3.91;92.34
64711;BME280;51139;45.626;6.850;2023-04-21T07:13:31;81332.59;;;3.39;91.83
64711;BME280;51139;45.626;6.850;2023-04-21T07:15:56;81330.16;;;3.18;93.11
64711;BME280;51139;45.626;6.850;2023-04-21T07:18:22;81339.22;;;2.78;100.00
64711;BME280;51139;45.626;6.850;2023-04-21T07:20:48;81350.56;;;2.88;100.00
64711;BME280;51139;45.626;6.850;2023-04-21T07:23:13;81345.69;;;2.92;100.00
64711;BME280;51139;45.626;6.850;2023-04-21T07:25:38;81343.56;;;3.38;100.00
64711;BME280;51139;45.626;6.850;2023-04-21T07:28:04;81351.28;;;3.12;100.00
64711;BME280;51139;45.626;6.850;2023-04-21T07:30:29;81356.28;;;3.57;99.98
64711;BME280;51139;45.626;6.850;2023-04-21T07:32:56;81368.69;;;3.56;97.02
64711;BME280;51139;45.626;6.850;2023-04-21T07:35:22;81367.50;;;3.34;90.70
64711;BME280;51139;45.626;6.850;2023-04-21T07:37:48;81369.94;;;2.77;91.63
64711;BME280;51139;45.626;6.850;2023-04-21T07:40:13;81369.25;;;3.16;100.00
64711;BME280;51139;45.626;6.850;2023-04-21T07:42:39;81376.22;;;3.05;100.00
64711;BME280;51139;45.626;6.850;2023-04-21T07:45:05;81379.00;;;2.92;100.00
64711;BME280;51139;45.626;6.850;2023-04-21T07:47:30;81392.91;;;2.63;100.00
64711;BME280;51139;45.626;6.850;2023-04-21T07:49:56;81388.19;;;2.54;100.00
64711;BME280;51139;45.626;6.850;2023-04-21T07:52:21;81376.00;;;2.65;100.00
64711;BME280;51139;45.626;6.850;2023-04-21T07:54:47;81371.50;;;3.04;100.00
64711;BME280;51139;45.626;6.850;2023-04-21T07:57:12;81374.63;;;3.49;100.00
64711;BME280;51139;45.626;6.850;2023-04-21T07:59:38;81369.41;;;3.41;100.00
64711;BME280;51139;45.626;6.850;2023-04-21T08:02:04;81374.47;;;3.24;100.00
64711;BME280;51139;45.626;6.850;2023-04-21T08:04:29;81368.50;;;2.69;100.00
64711;BME280;51139;45.626;6.850;2023-04-21T08:06:55;81367.66;;;2.89;100.00
64711;BME280;51139;45.626;6.850;2023-04-21T08:09:21;81359.97;;;3.46;100.00
64711;BME280;51139;45.626;6.850;2023-04-21T08:11:46;81360.81;;;3.64;97.69
64711;BME280;51139;45.626;6.850;2023-04-21T08:14:12;81359.63;;;2.72;100.00
64711;BME280;51139;45.626;6.850;2023-04-21T08:16:38;81362.56;;;3.61;100.00
64711;BME280;51139;45.626;6.850;2023-04-21T08:19:05;81356.38;;;3.98;85.65
64711;BME280;51139;45.626;6.850;2023-04-21T08:21:31;81362.50;;;3.85;86.53
64711;BME280;51139;45.626;6.850;2023-04-21T08:23:57;81361.81;;;4.33;88.06
64711;BME280;51139;45.626;6.850;2023-04-21T08:26:23;81365.91;;;4.18;82.42
64711;BME280;51139;45.626;6.850;2023-04-21T08:28:50;81369.03;;;4.24;75.53
64711;BME280;51139;45.626;6.850;2023-04-21T08:31:18;81366.56;;;4.67;71.07
64711;BME280;51139;45.626;6.850;2023-04-21T08:33:43;81369.19;;;4.34;73.43
64711;BME280;51139;45.626;6.850;2023-04-21T08:36:09;81360.78;;;4.36;73.30
64711;BME280;51139;45.626;6.850;2023-04-21T08:38:36;81367.22;;;4.43;70.96
64711;BME280;51139;45.626;6.850;2023-04-21T08:41:03;81367.53;;;4.55;71.88
64711;BME280;51139;45.626;6.850;2023-04-21T08:43:28;81367.31;;;4.60;65.00
64711;BME280;51139;45.626;6.850;2023-04-21T08:45:54;81371.16;;;4.59;73.00
64711;BME280;51139;45.626;6.850;2023-04-21T08:48:21;81368.53;;;4.59;71.32
64711;BME280;51139;45.626;6.850;2023-04-21T08:50:51;81374.75;;;4.79;66.13
64711;BME280;51139;45.626;6.850;2023-04-21T08:53:18;81372.53;;;4.27;74.58
64711;BME280;51139;45.626;6.850;2023-04-21T08:55:44;81374.28;;;4.99;73.24
64711;BME280;51139;45.626;6.850;2023-04-21T08:58:09;81366.38;;;4.73;67.59
64711;BME280;51139;45.626;6.850;2023-04-21T09:00:36;81369.25;;;4.93;68.37
64711;BME280;51139;45.626;6.850;2023-04-21T09:03:02;81361.53;;;4.95;67.79
64711;BME280;51139;45.626;6.850;2023-04-21T09:05:30;81363.25;;;5.00;63.08
64711;BME280;51139;45.626;6.850;2023-04-21T09:08:13;81356.06;;;5.26;64.60
64711;BME280;51139;45.626;6.850;2023-04-21T09:13:08;81364.88;;;4.95;87.81
64711;BME280;51139;45.626;6.850;2023-04-21T09:15:42;81373.00;;;5.58;85.20
64711;BME280;51139;45.626;6.850;2023-04-21T09:18:21;81373.53;;;5.57;100.00
64711;BME280;51139;45.626;6.850;2023-04-21T09:20:49;81374.47;;;5.69;94.52
64711;BME280;51139;45.626;6.850;2023-04-21T09:23:15;81384.00;;;6.07;72.08
64711;BME280;51139;45.626;6.850;2023-04-21T09:25:41;81377.94;;;5.97;66.09
64711;BME280;51139;45.626;6.850;2023-04-21T09:28:12;81366.22;;;5.73;86.46
64711;BME280;51139;45.626;6.850;2023-04-21T09:30:40;81373.69;;;5.59;86.07
64711;BME280;51139;45.626;6.850;2023-04-21T09:33:06;81377.06;;;5.77;88.67
64711;BME280;51139;45.626;6.850;2023-04-21T09:35:33;81375.28;;;5.79;88.56
64711;BME280;51139;45.626;6.850;2023-04-21T09:38:00;81383.63;;;6.28;77.07
64711;BME280;51139;45.626;6.850;2023-04-21T09:40:28;81383.75;;;6.48;69.26
64711;BME280;51139;45.626;6.850;2023-04-21T09:42:53;81395.91;;;6.08;61.78
64711;BME280;51139;45.626;6.850;2023-04-21T09:45:19;81400.25;;;6.66;62.69
64711;BME280;51139;45.626;6.850;2023-04-21T09:47:49;81395.38;;;7.08;60.32
64711;BME280;51139;45.626;6.850;2023-04-21T09:50:19;81404.84;;;6.93;59.01
64711;BME280;51139;45.626;6.850;2023-04-21T09:52:48;81404.94;;;6.85;61.35
64711;BME280;51139;45.626;6.850;2023-04-21T09:55:15;81397.41;;;6.99;69.00
64711;BME280;51139;45.626;6.850;2023-04-21T09:57:43;81392.38;;;6.94;61.81
64711;BME280;51139;45.626;6.850;2023-04-21T10:00:12;81393.72;;;6.85;60.38
64711;BME280;51139;45.626;6.850;2023-04-21T10:02:47;81393.56;;;6.83;59.94
64711;BME280;51139;45.626;6.850;2023-04-21T10:05:12;81384.69;;;7.06;58.69
64711;BME280;51139;45.626;6.850;2023-04-21T10:07:38;81379.03;;;7.09;63.04
64711;BME280;51139;45.626;6.850;2023-04-21T10:10:07;81378.91;;;7.17;62.81
64711;BME280;51139;45.626;6.850;2023-04-21T10:12:37;81386.84;;;6.72;57.42
64711;BME280;51139;45.626;6.850;2023-04-21T10:15:04;81381.34;;;7.33;59.00
64711;BME280;51139;45.626;6.850;2023-04-21T10:17:34;81376.41;;;6.92;57.48
64711;BME280;51139;45.626;6.850;2023-04-21T10:20:05;81362.41;;;6.89;56.67
64711;BME280;51139;45.626;6.850;2023-04-21T10:22:32;81360.97;;;7.06;58.03
64711;BME280;51139;45.626;6.850;2023-04-21T10:25:00;81367.09;;;6.81;54.40
64711;BME280;51139;45.626;6.850;2023-04-21T10:27:33;81380.00;;;7.14;59.76
64711;BME280;51139;45.626;6.850;2023-04-21T10:29:59;81375.94;;;6.76;53.88
64711;BME280;51139;45.626;6.850;2023-04-21T10:32:39;81359.03;;;6.79;52.17
64711;BME280;51139;45.626;6.850;2023-04-21T10:35:08;81374.44;;;7.10;55.41
64711;BME280;51139;45.626;6.850;2023-04-21T10:37:34;81373.56;;;6.97;50.44
64711;BME280;51139;45.626;6.850;2023-04-21T10:39:59;81377.44;;;6.96;52.13
64711;BME280;51139;45.626;6.850;2023-04-21T10:42:28;81375.59;;;6.89;51.30
64711;BME280;51139;45.626;6.850;2023-04-21T10:47:44;81389.00;;;7.11;50.09
64711;BME280;51139;45.626;6.850;2023-04-21T10:50:28;81386.38;;;7.11;50.86
64711;BME280;51139;45.626;6.850;2023-04-21T10:53:06;81394.34;;;6.76;51.84
64711;BME280;51139;45.626;6.850;2023-04-21T10:55:32;81386.31;;;6.74;52.20
64711;BME280;51139;45.626;6.850;2023-04-21T10:58:01;81384.91;;;7.00;52.17
64711;BME280;51139;45.626;6.850;2023-04-21T11:00:27;81375.91;;;7.03;52.29
64711;BME280;51139;45.626;6.850;2023-04-21T11:02:59;81389.34;;;7.25;53.52
64711;BME280;51139;45.626;6.850;2023-04-21T11:05:33;81385.06;;;6.75;51.32
64711;BME280;51139;45.626;6.850;2023-04-21T11:08:10;81397.84;;;6.25;55.40
64711;BME280;51139;45.626;6.850;2023-04-21T11:13:08;81410.50;;;6.90;50.32
64711;BME280;51139;45.626;6.850;2023-04-21T11:15:33;81396.41;;;6.77;50.72
64711;BME280;51139;45.626;6.850;2023-04-21T11:17:59;81408.28;;;6.51;51.15
64711;BME280;51139;45.626;6.850;2023-04-21T11:20:24;81409.38;;;6.48;53.12
64711;BME280;51139;45.626;6.850;2023-04-21T11:22:55;81397.00;;;7.30;48.95
64711;BME280;51139;45.626;6.850;2023-04-21T11:25:21;81398.16;;;7.37;49.84
64711;BME280;51139;45.626;6.850;2023-04-21T11:27:56;81393.84;;;7.32;51.43
64711;BME280;51139;45.626;6.850;2023-04-21T11:30:34;81399.84;;;7.15;48.70
64711;BME280;51139;45.626;6.850;2023-04-21T11:33:00;81391.72;;;7.03;51.17
64711;BME280;51139;45.626;6.850;2023-04-21T11:35:25;81403.66;;;7.32;51.81
64711;BME280;51139;45.626;6.850;2023-04-21T11:37:51;81402.78;;;7.47;50.58
64711;BME280;51139;45.626;6.850;2023-04-21T11:40:17;81409.25;;;7.08;49.52
64711;BME280;51139;45.626;6.850;2023-04-21T11:42:43;81399.50;;;6.83;51.30
64711;BME280;51139;45.626;6.850;2023-04-21T11:45:15;81394.41;;;7.13;53.11
64711;BME280;51139;45.626;6.850;2023-04-21T11:47:41;81397.59;;;6.49;50.91
64711;BME280;51139;45.626;6.850;2023-04-21T11:50:07;81402.09;;;7.19;52.93
64711;BME280;51139;45.626;6.850;2023-04-21T11:52:35;81399.44;;;6.91;52.36
64711;BME280;51139;45.626;6.850;2023-04-21T11:55:03;81401.50;;;7.10;53.10
64711;BME280;51139;45.626;6.850;2023-04-21T11:57:30;81406.25;;;7.22;54.42
64711;BME280;51139;45.626;6.850;2023-04-21T12:00:01;81408.41;;;7.33;51.41
64711;BME280;51139;45.626;6.850;2023-04-21T12:02:29;81411.00;;;7.06;52.13
64711;BME280;51139;45.626;6.850;2023-04-21T12:05:05;81404.25;;;6.85;54.02
64711;BME280;51139;45.626;6.850;2023-04-21T12:07:43;81413.94;;;7.10;52.52
64711;BME280;51139;45.626;6.850;2023-04-21T12:10:28;81407.50;;;7.21;53.79
64711;BME280;51139;45.626;6.850;2023-04-21T12:12:55;81409.19;;;7.26;53.64
64711;BME280;51139;45.626;6.850;2023-04-21T12:15:21;81402.31;;;7.13;53.08
64711;BME280;51139;45.626;6.850;2023-04-21T12:17:51;81408.22;;;7.96;54.64
64711;BME280;51139;45.626;6.850;2023-04-21T12:20:22;81405.22;;;8.29;54.69
64711;BME280;51139;45.626;6.850;2023-04-21T12:22:48;81406.63;;;7.73;52.58
64711;BME280;51139;45.626;6.850;2023-04-21T12:25:14;81410.28;;;7.87;51.49
64711;BME280;51139;45.626;6.850;2023-04-21T12:27:56;81416.09;;;8.43;49.96
64711;BME280;51139;45.626;6.850;2023-04-21T12:30:21;81424.63;;;8.04;48.83
64711;BME280;51139;45.626;6.850;2023-04-21T12:32:46;81419.31;;;7.94;52.69
64711;BME280;51139;45.626;6.850;2023-04-21T12:35:12;81421.69;;;8.67;50.38
64711;BME280;51139;45.626;6.850;2023-04-21T12:37:37;81424.00;;;8.33;48.56
64711;BME280;51139;45.626;6.850;2023-04-21T12:40:03;81413.66;;;8.65;48.19
64711;BME280;51139;45.626;6.850;2023-04-21T12:42:29;81411.03;;;8.74;48.71
64711;BME280;51139;45.626;6.850;2023-04-21T12:44:55;81427.97;;;8.05;49.45
64711;BME280;51139;45.626;6.850;2023-04-21T12:47:21;81427.13;;;8.69;50.90
64711;BME280;51139;45.626;6.850;2023-04-21T12:49:46;81424.97;;;8.38;48.26
64711;BME280;51139;45.626;6.850;2023-04-21T12:52:11;81424.22;;;8.55;47.82
64711;BME280;51139;45.626;6.850;2023-04-21T12:54:37;81428.88;;;8.37;46.30
64711;BME280;51139;45.626;6.850;2023-04-21T12:57:02;81423.19;;;8.40;49.92
64711;BME280;51139;45.626;6.850;2023-04-21T12:59:28;81421.94;;;8.41;48.38
64711;BME280;51139;45.626;6.850;2023-04-21T13:01:53;81421.69;;;8.00;47.61
64711;BME280;51139;45.626;6.850;2023-04-21T13:04:18;81423.13;;;8.11;49.03
64711;BME280;51139;45.626;6.850;2023-04-21T13:06:44;81412.03;;;8.32;47.39
64711;BME280;51139;45.626;6.850;2023-04-21T13:09:09;81413.25;;;8.68;49.48